createdAt,value
2018-01-13T00:00:28.635Z,68.63
2018-01-13T00:02:56.951Z,68.79
2018-01-13T00:05:25.267Z,68.99
2018-01-13T00:07:53.539Z,69.18
2018-01-13T00:10:21.844Z,69.19
2018-01-13T00:12:50.127Z,68.90
2018-01-13T00:15:18.479Z,69.20
2018-01-13T00:17:46.771Z,69.16
2018-01-13T00:20:16.092Z,69.08
2018-01-13T00:22:44.494Z,69.45
2018-01-13T00:25:12.786Z,69.14
2018-01-13T00:27:41.110Z,69.02
2018-01-13T00:30:09.677Z,68.96
2018-01-13T00:32:37.991Z,69.64
2018-01-13T00:35:06.278Z,69.42
2018-01-13T00:37:34.563Z,69.50
2018-01-13T00:40:02.842Z,68.68
2018-01-13T00:42:31.143Z,69.01
2018-01-13T00:44:59.435Z,68.47
2018-01-13T00:47:27.699Z,68.65
2018-01-13T00:49:55.996Z,68.66
2018-01-13T00:52:24.280Z,68.41
2018-01-13T00:54:52.583Z,68.06
2018-01-13T00:57:20.864Z,68.37
2018-01-13T00:59:49.158Z,68.38
2018-01-13T01:02:17.434Z,68.56
2018-01-13T01:04:45.716Z,68.51
2018-01-13T01:07:13.995Z,68.66
2018-01-13T01:09:42.343Z,68.34
2018-01-13T01:12:10.640Z,68.13
2018-01-13T01:14:38.925Z,67.69
2018-01-13T01:17:07.270Z,67.82
2018-01-13T01:19:35.502Z,67.93
2018-01-13T01:22:04.844Z,67.57
2018-01-13T01:24:33.329Z,67.85
2018-01-13T01:27:01.609Z,68.03
2018-01-13T01:29:29.885Z,67.55
2018-01-13T01:31:58.189Z,67.90
2018-01-13T01:34:26.470Z,68.45
2018-01-13T01:36:55.095Z,68.86
2018-01-13T01:39:23.407Z,68.26
2018-01-13T01:41:51.674Z,68.08
2018-01-13T01:44:19.968Z,68.07
2018-01-13T01:46:48.245Z,67.80
2018-01-13T01:49:16.544Z,68.11
2018-01-13T01:51:44.879Z,67.99
2018-01-13T01:54:13.119Z,67.85
2018-01-13T01:56:41.411Z,67.84
2018-01-13T01:59:09.690Z,67.91
2018-01-13T02:01:37.982Z,67.78
2018-01-13T02:04:06.268Z,68.18
2018-01-13T02:06:34.534Z,68.46
2018-01-13T02:09:03.135Z,68.49
2018-01-13T02:11:31.427Z,69.08
2018-01-13T02:13:59.729Z,68.58
2018-01-13T02:16:27.979Z,68.76
2018-01-13T02:18:56.297Z,69.08
2018-01-13T02:21:24.562Z,68.96
2018-01-13T02:23:52.902Z,68.94
2018-01-13T02:26:21.194Z,68.89
2018-01-13T02:28:49.475Z,68.77
2018-01-13T02:31:17.777Z,68.42
2018-01-13T02:33:46.054Z,68.47
2018-01-13T02:36:14.378Z,68.61
2018-01-13T02:38:42.632Z,68.37
2018-01-13T02:41:10.930Z,68.37
2018-01-13T02:43:39.323Z,68.62
2018-01-13T02:46:07.603Z,68.65
2018-01-13T02:48:35.880Z,69.09
2018-01-13T02:51:04.403Z,69.03
2018-01-13T02:53:32.699Z,68.95
2018-01-13T02:56:01.209Z,69.21
2018-01-13T02:58:29.507Z,69.25
2018-01-13T03:00:57.829Z,68.86
2018-01-13T03:03:26.123Z,68.25
2018-01-13T03:05:54.408Z,68.49
2018-01-13T03:08:22.694Z,68.66
2018-01-13T03:10:50.965Z,68.99
2018-01-13T03:13:19.269Z,68.94
2018-01-13T03:15:47.597Z,68.71
2018-01-13T03:18:15.973Z,68.97
2018-01-13T03:20:44.306Z,69.18
2018-01-13T03:23:12.622Z,69.15
2018-01-13T03:25:40.914Z,68.90
2018-01-13T03:28:09.211Z,68.96
2018-01-13T03:30:37.515Z,69.00
2018-01-13T03:33:05.803Z,69.10
2018-01-13T03:35:34.114Z,69.09
2018-01-13T03:38:02.475Z,69.17
2018-01-13T03:40:30.762Z,68.84
2018-01-13T03:42:59.043Z,68.85
2018-01-13T03:45:28.148Z,68.82
2018-01-13T03:47:56.450Z,69.23
2018-01-13T03:50:24.724Z,69.34
2018-01-13T03:52:53.007Z,68.85
2018-01-13T03:55:21.326Z,68.65
2018-01-13T03:57:49.846Z,68.73
2018-01-13T04:00:18.137Z,68.55
2018-01-13T04:02:46.403Z,68.70
2018-01-13T04:05:14.692Z,69.61
2018-01-13T04:07:42.987Z,69.80
2018-01-13T04:10:11.295Z,69.72
2018-01-13T04:12:39.585Z,69.17
2018-01-13T04:15:07.887Z,68.93
2018-01-13T04:17:36.151Z,68.77
2018-01-13T04:20:04.870Z,68.86
2018-01-13T04:22:33.178Z,68.61
2018-01-13T04:25:01.492Z,68.78
2018-01-13T04:27:29.786Z,68.19
2018-01-13T04:29:58.048Z,68.20
2018-01-13T04:32:26.363Z,68.24
2018-01-13T04:34:54.656Z,68.60
2018-01-13T04:37:22.970Z,68.39
2018-01-13T04:39:51.239Z,68.26
2018-01-13T04:42:19.759Z,68.25
2018-01-13T04:44:48.014Z,67.95
2018-01-13T04:47:16.897Z,67.86
2018-01-13T04:49:45.217Z,67.73
2018-01-13T04:52:13.488Z,67.44
2018-01-13T04:54:41.809Z,67.05
2018-01-13T04:57:10.094Z,67.76
2018-01-13T04:59:38.387Z,67.80
2018-01-13T05:02:06.664Z,67.30
2018-01-13T05:04:34.946Z,67.26
2018-01-13T05:07:03.225Z,67.02
2018-01-13T05:09:31.550Z,67.57
2018-01-13T05:11:59.827Z,66.95
2018-01-13T05:14:28.102Z,67.46
2018-01-13T05:16:56.417Z,67.58
2018-01-13T05:19:24.682Z,67.44
2018-01-13T05:21:52.987Z,67.49
2018-01-13T05:24:22.085Z,67.29
2018-01-13T05:26:50.366Z,67.62
2018-01-13T05:29:18.625Z,67.98
2018-01-13T05:31:46.951Z,68.28
2018-01-13T05:34:15.235Z,68.13
2018-01-13T05:36:43.518Z,68.51
2018-01-13T05:39:11.822Z,68.18
2018-01-13T05:41:40.094Z,67.88
2018-01-13T05:44:08.398Z,67.83
2018-01-13T05:46:36.687Z,67.47
2018-01-13T05:49:04.990Z,67.49
2018-01-13T05:51:33.262Z,67.52
2018-01-13T05:54:01.554Z,67.37
2018-01-13T05:56:29.823Z,67.33
2018-01-13T05:58:58.119Z,67.76
2018-01-13T06:01:26.414Z,67.48
2018-01-13T06:03:54.740Z,67.31
2018-01-13T06:06:23.053Z,67.74
2018-01-13T06:08:51.748Z,67.46
2018-01-13T06:11:20.094Z,67.46
2018-01-13T06:13:48.341Z,67.63
2018-01-13T06:16:16.646Z,67.64
2018-01-13T06:18:44.927Z,67.96
2018-01-13T06:21:13.227Z,67.82
2018-01-13T06:23:41.526Z,67.49
2018-01-13T06:26:09.834Z,67.62
2018-01-13T06:28:38.123Z,67.17
2018-01-13T06:31:06.418Z,67.23
2018-01-13T06:33:34.713Z,67.07
2018-01-13T06:36:02.979Z,67.09
2018-01-13T06:38:31.265Z,66.89
2018-01-13T06:40:59.558Z,67.17
2018-01-13T06:43:27.885Z,67.08
2018-01-13T06:45:56.155Z,66.79
2018-01-13T06:48:24.480Z,66.71
2018-01-13T06:50:52.814Z,66.90
2018-01-13T06:53:21.101Z,66.35
2018-01-13T06:55:49.395Z,66.31
2018-01-13T06:58:17.875Z,66.26
2018-01-13T07:00:46.150Z,66.23
2018-01-13T07:03:14.408Z,66.12
2018-01-13T07:05:42.715Z,66.24
2018-01-13T07:08:10.979Z,66.38
2018-01-13T07:10:39.302Z,66.53
2018-01-13T07:13:07.615Z,66.37
2018-01-13T07:15:35.909Z,66.64
2018-01-13T07:18:04.970Z,66.50
2018-01-13T07:20:33.278Z,66.42
2018-01-13T07:23:01.576Z,66.54
2018-01-13T07:25:29.873Z,66.40
2018-01-13T07:27:58.158Z,66.42
2018-01-13T07:30:26.448Z,66.71
2018-01-13T07:32:54.768Z,66.61
2018-01-13T07:35:23.045Z,66.34
2018-01-13T07:37:51.385Z,66.42
2018-01-13T07:40:19.695Z,66.93
2018-01-13T07:42:47.991Z,67.06
2018-01-13T07:45:16.268Z,67.23
2018-01-13T07:47:44.703Z,67.30
2018-01-13T07:50:13.059Z,67.45
2018-01-13T07:52:41.359Z,67.41
2018-01-13T07:55:09.675Z,67.36
2018-01-13T07:57:37.945Z,66.93
2018-01-13T08:00:06.272Z,66.99
2018-01-13T08:02:34.739Z,66.97
2018-01-13T08:05:04.016Z,67.02
2018-01-13T08:07:32.288Z,67.31
2018-01-13T08:10:00.564Z,66.71
2018-01-13T08:12:28.862Z,66.85
2018-01-13T08:14:57.130Z,67.46
2018-01-13T08:17:26.146Z,67.18
2018-01-13T08:19:54.386Z,67.36
2018-01-13T08:22:22.678Z,67.35
2018-01-13T08:24:50.942Z,67.53
2018-01-13T08:27:19.254Z,67.52
2018-01-13T08:29:47.558Z,67.45
2018-01-13T08:32:15.874Z,66.92
2018-01-13T08:34:44.139Z,66.94
2018-01-13T08:37:12.422Z,66.83
2018-01-13T08:39:40.706Z,67.53
2018-01-13T08:42:09.585Z,67.76
2018-01-13T08:44:37.872Z,67.91
2018-01-13T08:47:06.451Z,67.39
2018-01-13T08:49:34.828Z,67.27
2018-01-13T08:52:03.071Z,67.57
2018-01-13T08:54:31.379Z,67.08
2018-01-13T08:56:59.658Z,67.00
2018-01-13T08:59:27.966Z,67.10
2018-01-13T09:01:57.755Z,66.78
2018-01-13T09:04:26.074Z,66.91
2018-01-13T09:06:54.372Z,66.99
2018-01-13T09:09:22.635Z,66.77
2018-01-13T09:11:50.906Z,66.38
2018-01-13T09:14:19.184Z,66.40
2018-01-13T09:16:47.482Z,66.28
2018-01-13T09:19:15.797Z,66.00
2018-01-13T09:21:44.124Z,65.83
2018-01-13T09:24:12.414Z,65.94
2018-01-13T09:26:40.696Z,65.58
2018-01-13T09:29:08.996Z,65.50
2018-01-13T09:31:37.271Z,65.71
2018-01-13T09:34:05.560Z,65.45
2018-01-13T09:36:33.836Z,65.42
2018-01-13T09:39:02.143Z,65.11
2018-01-13T09:41:30.408Z,65.14
2018-01-13T09:43:58.736Z,65.19
2018-01-13T09:46:27.014Z,65.54
2018-01-13T09:48:55.328Z,65.72
2018-01-13T09:51:24.487Z,65.49
2018-01-13T09:53:52.832Z,65.57
2018-01-13T09:56:21.110Z,65.34
2018-01-13T09:58:49.387Z,65.46
2018-01-13T10:01:17.717Z,65.36
2018-01-13T10:03:46.068Z,65.39
2018-01-13T10:06:14.369Z,65.44
2018-01-13T10:08:43.132Z,65.40
2018-01-13T10:11:11.433Z,65.15
2018-01-13T10:13:39.712Z,64.97
2018-01-13T10:16:08.061Z,65.08
2018-01-13T10:18:36.391Z,65.23
2018-01-13T10:21:04.679Z,65.05
2018-01-13T10:23:32.950Z,65.02
2018-01-13T10:26:01.271Z,64.40
2018-01-13T10:28:29.739Z,64.24
2018-01-13T10:30:58.050Z,64.74
2018-01-13T10:33:26.299Z,65.03
2018-01-13T10:35:54.683Z,64.74
2018-01-13T10:38:22.991Z,64.81
2018-01-13T10:40:51.296Z,64.15
2018-01-13T10:43:19.603Z,64.37
2018-01-13T10:45:48.003Z,64.30
2018-01-13T10:48:16.316Z,64.38
2018-01-13T10:50:44.640Z,65.02
2018-01-13T10:53:13.815Z,64.65
2018-01-13T10:55:42.847Z,64.31
2018-01-13T10:58:11.204Z,64.76
2018-01-13T11:00:39.523Z,65.07
2018-01-13T11:03:07.836Z,64.81
2018-01-13T11:05:36.141Z,64.47
2018-01-13T11:08:04.799Z,63.90
2018-01-13T11:10:33.100Z,64.32
2018-01-13T11:13:01.376Z,64.16
2018-01-13T11:15:29.695Z,64.12
2018-01-13T11:17:57.967Z,63.84
2018-01-13T11:20:26.311Z,63.78
2018-01-13T11:22:54.586Z,63.76
2018-01-13T11:25:22.898Z,63.77
2018-01-13T11:27:51.234Z,63.96
2018-01-13T11:30:19.532Z,63.89
2018-01-13T11:32:47.829Z,64.18
2018-01-13T11:35:16.804Z,63.94
2018-01-13T11:37:45.087Z,64.11
2018-01-13T11:40:13.388Z,64.26
2018-01-13T11:42:41.743Z,63.76
2018-01-13T11:45:10.064Z,63.87
2018-01-13T11:47:38.377Z,63.97
2018-01-13T11:50:06.659Z,64.15
2018-01-13T11:52:34.968Z,63.98
2018-01-13T11:55:03.248Z,64.23
2018-01-13T11:57:31.625Z,64.03
2018-01-13T11:59:59.924Z,64.10
2018-01-13T12:02:28.414Z,64.19
2018-01-13T12:04:56.710Z,64.45
2018-01-13T12:07:25.714Z,64.48
2018-01-13T12:09:54.240Z,64.52
2018-01-13T12:12:22.542Z,64.86
2018-01-13T12:14:50.862Z,64.95
2018-01-13T12:17:19.121Z,64.84
2018-01-13T12:19:47.410Z,64.76
2018-01-13T12:22:15.670Z,64.30
2018-01-13T12:24:43.971Z,64.01
2018-01-13T12:27:12.244Z,64.13
2018-01-13T12:29:40.596Z,64.08
2018-01-13T12:32:08.959Z,64.16
2018-01-13T12:34:37.257Z,64.16
2018-01-13T12:37:05.534Z,64.01
2018-01-13T12:39:33.836Z,64.07
2018-01-13T12:42:02.228Z,64.17
2018-01-13T12:44:30.474Z,64.64
2018-01-13T12:46:58.779Z,64.11
2018-01-13T12:49:27.095Z,63.94
2018-01-13T12:51:55.495Z,64.29
2018-01-13T12:54:23.735Z,64.38
2018-01-13T12:56:52.033Z,64.43
2018-01-13T12:59:20.323Z,64.56
2018-01-13T13:01:48.985Z,64.67
2018-01-13T13:04:17.272Z,64.13
2018-01-13T13:06:45.622Z,64.40
2018-01-13T13:09:13.945Z,64.67
2018-01-13T13:11:42.788Z,64.82
2018-01-13T13:14:11.067Z,64.78
2018-01-13T13:16:39.322Z,64.82
2018-01-13T13:19:07.646Z,64.62
2018-01-13T13:21:35.922Z,64.78
2018-01-13T13:24:04.708Z,64.78
2018-01-13T13:26:33.000Z,65.18
2018-01-13T13:29:01.307Z,65.19
2018-01-13T13:31:29.564Z,65.18
2018-01-13T13:33:57.876Z,65.56
2018-01-13T13:36:26.159Z,65.74
2018-01-13T13:38:54.499Z,65.91
2018-01-13T13:41:22.833Z,66.19
2018-01-13T13:43:51.148Z,66.26
2018-01-13T13:46:19.486Z,66.46
2018-01-13T13:48:48.062Z,66.57
2018-01-13T13:51:16.344Z,66.57
2018-01-13T13:53:44.636Z,66.35
2018-01-13T13:56:12.915Z,66.79
2018-01-13T13:58:41.186Z,66.83
2018-01-13T14:01:28.434Z,66.79
2018-01-13T14:03:37.759Z,66.94
2018-01-13T14:06:06.047Z,66.83
2018-01-13T14:08:34.381Z,66.83
2018-01-13T14:11:02.687Z,66.83
2018-01-13T14:13:31.071Z,66.91
2018-01-13T14:15:59.522Z,66.88
2018-01-13T14:18:27.939Z,66.68
2018-01-13T14:20:56.128Z,66.63
2018-01-13T14:23:24.424Z,66.75
2018-01-13T14:25:52.706Z,66.79
2018-01-13T14:28:21.390Z,66.80
2018-01-13T14:30:49.783Z,66.87
2018-01-13T14:33:18.089Z,66.83
2018-01-13T14:35:46.411Z,66.86
2018-01-13T14:38:14.672Z,66.74
2018-01-13T14:40:42.962Z,66.48
2018-01-13T14:43:11.277Z,66.25
2018-01-13T14:45:39.559Z,66.25
2018-01-13T14:48:07.856Z,66.03
2018-01-13T14:50:36.199Z,65.81
2018-01-13T14:53:05.395Z,65.86
2018-01-13T14:55:34.338Z,65.47
2018-01-13T14:58:02.602Z,65.56
2018-01-13T15:00:30.926Z,64.77
2018-01-13T15:02:59.184Z,64.58
2018-01-13T15:05:27.483Z,64.87
2018-01-13T15:07:55.770Z,64.80
2018-01-13T15:10:24.085Z,64.42
2018-01-13T15:12:52.405Z,63.82
2018-01-13T15:15:20.705Z,63.36
2018-01-13T15:17:48.988Z,63.73
2018-01-13T15:20:17.300Z,63.32
2018-01-13T15:22:45.578Z,63.60
2018-01-13T15:25:13.906Z,63.27
2018-01-13T15:27:42.166Z,63.71
2018-01-13T15:30:10.464Z,63.60
2018-01-13T15:32:38.764Z,63.74
2018-01-13T15:35:07.055Z,63.62
2018-01-13T15:37:35.383Z,63.48
2018-01-13T15:40:04.677Z,63.44
2018-01-13T15:42:33.006Z,63.55
2018-01-13T15:45:01.286Z,63.07
2018-01-13T15:47:29.640Z,63.21
2018-01-13T15:49:58.022Z,62.79
2018-01-13T15:52:26.280Z,63.19
2018-01-13T15:54:54.586Z,62.88
2018-01-13T15:57:22.880Z,63.05
2018-01-13T15:59:51.297Z,62.88
2018-01-13T16:02:19.546Z,62.16
2018-01-13T16:04:48.787Z,62.38
2018-01-13T16:07:17.411Z,62.25
2018-01-13T16:09:45.894Z,62.19
2018-01-13T16:12:14.494Z,62.71
2018-01-13T16:14:42.751Z,62.34
2018-01-13T16:17:11.050Z,62.35
2018-01-13T16:19:39.406Z,62.12
2018-01-13T16:22:07.835Z,62.54
2018-01-13T16:24:36.082Z,62.94
2018-01-13T16:27:04.926Z,62.59
2018-01-13T16:29:33.224Z,62.47
2018-01-13T16:32:02.031Z,62.52
2018-01-13T16:34:30.292Z,62.51
2018-01-13T16:36:58.577Z,62.82
2018-01-13T16:39:26.853Z,62.92
2018-01-13T16:41:56.288Z,63.18
2018-01-13T16:44:24.832Z,62.77
2018-01-13T16:46:53.124Z,62.77
2018-01-13T16:49:21.406Z,62.94
2018-01-13T16:51:49.698Z,62.83
2018-01-13T16:54:17.997Z,62.88
2018-01-13T16:56:46.266Z,62.46
2018-01-13T16:59:14.607Z,62.58
2018-01-13T17:01:42.898Z,63.18
2018-01-13T17:04:11.220Z,63.39
2018-01-13T17:06:39.522Z,63.82
2018-01-13T17:09:07.803Z,63.82
2018-01-13T17:11:36.173Z,63.86
2018-01-13T17:14:04.830Z,64.20
2018-01-13T17:16:33.084Z,63.67
2018-01-13T17:19:01.397Z,63.33
2018-01-13T17:21:29.673Z,63.25
2018-01-13T17:23:58.500Z,63.68
2018-01-13T17:26:27.022Z,63.45
2018-01-13T17:28:55.333Z,63.82
2018-01-13T17:31:23.815Z,63.89
2018-01-13T17:33:52.090Z,63.78
2018-01-13T17:36:20.381Z,63.83
2018-01-13T17:38:48.651Z,63.88
2018-01-13T17:41:16.935Z,64.01
2018-01-13T17:43:45.209Z,63.70
2018-01-13T17:46:13.489Z,63.87
2018-01-13T17:48:41.758Z,63.89
2018-01-13T17:51:10.055Z,64.33
2018-01-13T17:53:38.329Z,64.66
2018-01-13T17:56:06.630Z,64.19
2018-01-13T17:58:34.879Z,64.35
2018-01-13T18:01:03.139Z,64.25
2018-01-13T18:03:31.439Z,63.88
2018-01-13T18:05:59.707Z,63.90
2018-01-13T18:08:29.260Z,63.82
2018-01-13T18:10:57.522Z,63.82
2018-01-13T18:13:25.811Z,63.50
2018-01-13T18:15:54.112Z,63.83
2018-01-13T18:18:22.391Z,63.71
2018-01-13T18:20:50.651Z,64.06
2018-01-13T18:23:18.960Z,64.43
2018-01-13T18:25:47.247Z,64.33
2018-01-13T18:28:15.536Z,64.68
2018-01-13T18:30:43.900Z,64.69
2018-01-13T18:33:12.223Z,64.51
2018-01-13T18:35:40.537Z,64.97
2018-01-13T18:38:08.755Z,65.09
2018-01-13T18:40:37.099Z,65.13
2018-01-13T18:43:05.356Z,64.45
2018-01-13T18:45:33.655Z,64.84
2018-01-13T18:48:01.920Z,64.22
2018-01-13T18:50:30.220Z,64.19
2018-01-13T18:52:58.488Z,64.67
2018-01-13T18:55:26.799Z,64.56
2018-01-13T18:57:55.076Z,64.73
2018-01-13T19:00:23.363Z,64.49
2018-01-13T19:02:51.644Z,64.35
2018-01-13T19:05:20.038Z,64.08
2018-01-13T19:07:48.284Z,64.22
2018-01-13T19:10:16.590Z,64.03
2018-01-13T19:12:44.858Z,63.85
2018-01-13T19:15:13.156Z,64.04
2018-01-13T19:17:41.467Z,64.40
2018-01-13T19:20:09.796Z,63.99
2018-01-13T19:22:38.059Z,63.89
2018-01-13T19:25:06.398Z,63.90
2018-01-13T19:27:34.692Z,63.63
2018-01-13T19:30:03.008Z,63.62
2018-01-13T19:32:31.288Z,63.79
2018-01-13T19:34:59.614Z,63.50
2018-01-13T19:37:28.732Z,63.48
2018-01-13T19:39:57.008Z,63.22
2018-01-13T19:42:25.311Z,63.48
2018-01-13T19:44:53.674Z,63.57
2018-01-13T19:47:21.985Z,63.66
2018-01-13T19:49:50.244Z,63.80
2018-01-13T19:52:18.540Z,63.52
2018-01-13T19:54:46.822Z,63.73
2018-01-13T19:57:15.154Z,63.68
2018-01-13T19:59:43.490Z,63.45
2018-01-13T20:02:11.778Z,63.64
2018-01-13T20:04:40.099Z,63.69
2018-01-13T20:07:08.482Z,63.64
2018-01-13T20:09:36.754Z,63.48
2018-01-13T20:12:05.152Z,63.71
2018-01-13T20:14:33.486Z,63.71
2018-01-13T20:17:01.762Z,64.26
2018-01-13T20:19:30.059Z,64.34
2018-01-13T20:21:58.338Z,64.16
2018-01-13T20:24:26.626Z,64.49
2018-01-13T20:26:54.891Z,64.72
2018-01-13T20:29:23.209Z,64.76
2018-01-13T20:31:51.466Z,64.39
2018-01-13T20:34:19.767Z,64.21
2018-01-13T20:36:48.038Z,64.23
2018-01-13T20:39:16.347Z,64.49
2018-01-13T20:41:44.623Z,64.16
2018-01-13T20:44:13.908Z,64.21
2018-01-13T20:46:42.487Z,64.49
2018-01-13T20:49:10.774Z,64.73
2018-01-13T20:51:39.033Z,65.13
2018-01-13T20:54:07.352Z,65.17
2018-01-13T20:56:35.626Z,65.24
2018-01-13T20:59:04.575Z,65.33
2018-01-13T21:01:33.783Z,65.40
2018-01-13T21:04:02.065Z,65.16
2018-01-13T21:06:30.362Z,65.26
2018-01-13T21:08:58.682Z,65.20
2018-01-13T21:11:26.983Z,65.36
2018-01-13T21:13:55.242Z,65.13
2018-01-13T21:16:23.541Z,65.00
2018-01-13T21:18:51.820Z,65.17
2018-01-13T21:21:20.116Z,64.95
2018-01-13T21:23:48.387Z,64.96
2018-01-13T21:26:17.143Z,64.99
2018-01-13T21:28:45.426Z,65.03
2018-01-13T21:31:13.737Z,64.90
2018-01-13T21:33:42.018Z,64.97
2018-01-13T21:36:10.303Z,64.92
2018-01-13T21:38:38.660Z,64.56
2018-01-13T21:41:06.997Z,64.46
2018-01-13T21:43:35.256Z,64.35
2018-01-13T21:46:05.284Z,64.37
2018-01-13T21:48:33.586Z,64.72
2018-01-13T21:51:01.889Z,64.70
2018-01-13T21:53:30.163Z,64.65
2018-01-13T21:55:58.510Z,65.04
2018-01-13T21:58:26.788Z,65.25
2018-01-13T22:00:55.164Z,65.70
2018-01-13T22:03:23.451Z,65.79
2018-01-13T22:05:51.734Z,66.09
2018-01-13T22:08:20.109Z,66.01
2018-01-13T22:10:48.375Z,66.25
2018-01-13T22:13:16.683Z,66.33
2018-01-13T22:15:44.952Z,66.33
2018-01-13T22:18:13.340Z,66.25
2018-01-13T22:20:41.596Z,66.22
2018-01-13T22:23:10.099Z,66.22
2018-01-13T22:25:38.364Z,66.13
2018-01-13T22:28:06.663Z,66.34
2018-01-13T22:30:34.972Z,66.63
2018-01-13T22:33:03.255Z,66.80
2018-01-13T22:35:31.569Z,67.17
2018-01-13T22:37:59.896Z,67.13
2018-01-13T22:40:28.219Z,67.47
2018-01-13T22:42:56.501Z,67.49
2018-01-13T22:45:24.828Z,67.83
2018-01-13T22:47:53.115Z,67.69
2018-01-13T22:50:21.429Z,67.74
2018-01-13T22:52:49.753Z,67.60
2018-01-13T22:55:18.494Z,67.72
2018-01-13T22:57:46.836Z,67.83
2018-01-13T23:00:15.120Z,67.84
2018-01-13T23:02:43.460Z,67.80
2018-01-13T23:05:11.728Z,67.93
2018-01-13T23:07:40.048Z,67.97
2018-01-13T23:10:08.321Z,67.96
2018-01-13T23:12:36.632Z,67.52
2018-01-13T23:15:05.288Z,67.44
2018-01-13T23:17:34.346Z,67.51
2018-01-13T23:20:02.630Z,67.56
2018-01-13T23:22:30.952Z,67.58
2018-01-13T23:24:59.209Z,67.67
2018-01-13T23:27:27.504Z,67.65
2018-01-13T23:29:55.817Z,67.61
2018-01-13T23:32:24.085Z,67.97
2018-01-13T23:34:52.726Z,68.26
2018-01-13T23:37:21.012Z,68.17
2018-01-13T23:39:49.421Z,68.16
2018-01-13T23:42:17.674Z,67.95
2018-01-13T23:44:45.997Z,68.02
2018-01-13T23:47:14.964Z,67.98
2018-01-13T23:49:43.323Z,67.93
2018-01-13T23:52:11.557Z,67.95
2018-01-13T23:54:39.867Z,67.99
2018-01-13T23:57:08.159Z,67.98
2018-01-13T23:59:36.450Z,68.09
